Monte Real Airport Monte Real, Leiria PT
ICAO: LPMR
IATA:
Category: Medium
Scheduled Services: No

Elevation: 187 ft
TransAlt. 4000 ft.

Airport Communications:
APP:121.7
GND:119.725
TWR:122.1

LPMR Zoom In..

If you have problems with the map follow the link
https://www.worldairports.se/pages/airport.php?
ICAO=LPMR

Runways:

(A) RW 01 length 8068 ft width 148 ft
ILS 109.15 / hdg 6

(B) RW 19 length 8068 ft width 148 ft
ILS 110.30 / hdg 186

Location; LPMR
Day. 18 / Time. 20.00 Zulu
* QNH: 1018
* Temperature: 09° c. 48.2°f.
* Wind from: 130° Speed 10 kn.
Dewpoint: 09° c.
Visibility: 6000 m.
Clouds: Broken 700 ft.
Clouds: Overcast 1800 ft.

LPMR 182000Z 13010KT 6000 -RADZ BKN007 OVC018 09/09 Q1018


Wind From 130°
Speed 10 kn.

 
 
jpsmedia.com for Web Design worldairports.se 2019   terms of use